createdAt,value
2023-02-14T00:01:59.881Z,6.60
2023-02-14T00:04:28.543Z,6.52
2023-02-14T00:06:57.259Z,6.50
2023-02-14T00:09:25.941Z,6.50
2023-02-14T00:11:54.525Z,6.54
2023-02-14T00:14:41.850Z,6.60
2023-02-14T00:17:10.438Z,6.50
2023-02-14T00:19:39.122Z,6.50
2023-02-14T00:22:07.807Z,6.50
2023-02-14T00:24:36.396Z,6.50
2023-02-14T00:27:04.982Z,6.50
2023-02-14T00:29:34.687Z,6.50
2023-02-14T00:32:04.360Z,6.50
2023-02-14T00:34:33.803Z,6.50
2023-02-14T00:37:04.016Z,6.42
2023-02-14T00:39:32.719Z,6.48
2023-02-14T00:42:01.296Z,6.50
2023-02-14T00:44:29.986Z,6.50
2023-02-14T00:46:58.573Z,6.50
2023-02-14T00:49:27.258Z,6.50
2023-02-14T00:51:55.945Z,6.50
2023-02-14T00:54:24.633Z,6.50
2023-02-14T00:56:53.422Z,6.50
2023-02-14T00:59:22.007Z,6.50
2023-02-14T01:01:50.900Z,6.50
2023-02-14T01:04:19.688Z,6.50
2023-02-14T01:06:48.479Z,6.50
2023-02-14T01:09:17.266Z,6.50
2023-02-14T01:11:45.953Z,6.50
2023-02-14T01:14:16.894Z,6.50
2023-02-14T01:16:45.629Z,6.42
2023-02-14T01:19:14.299Z,6.40
2023-02-14T01:21:45.615Z,6.50
2023-02-14T01:24:15.220Z,6.50
2023-02-14T01:26:44.843Z,6.50
2023-02-14T01:29:13.623Z,6.46
2023-02-14T01:31:42.437Z,6.40
2023-02-14T01:34:11.094Z,6.40
2023-02-14T01:36:40.564Z,6.40
2023-02-14T01:39:14.095Z,6.40
2023-02-14T01:41:48.670Z,6.50
2023-02-14T01:44:17.927Z,6.50
2023-02-14T01:46:47.247Z,6.50
2023-02-14T01:49:46.637Z,6.50
2023-02-14T01:52:22.491Z,6.50
2023-02-14T01:55:06.848Z,6.40
2023-02-14T01:58:11.987Z,6.40
2023-02-14T02:00:57.613Z,6.40
2023-02-14T02:03:35.577Z,6.40
2023-02-14T02:06:39.957Z,6.40
2023-02-14T02:09:19.340Z,6.50
2023-02-14T02:11:49.028Z,6.50
2023-02-14T02:14:22.965Z,6.50
2023-02-14T02:17:16.218Z,6.50
2023-02-14T02:20:29.013Z,6.44
2023-02-14T02:23:42.481Z,6.40
2023-02-14T02:26:47.519Z,6.36
2023-02-14T02:29:16.104Z,6.40
2023-02-14T02:32:27.388Z,6.40
2023-02-14T02:35:28.859Z,6.40
2023-02-14T02:38:46.070Z,6.42
2023-02-14T02:41:33.291Z,6.50
2023-02-14T02:44:30.958Z,6.50
2023-02-14T02:47:21.748Z,6.44
2023-02-14T02:50:45.647Z,6.48
2023-02-14T02:53:46.793Z,6.40
2023-02-14T02:56:46.527Z,6.40
2023-02-14T02:59:25.744Z,6.40
2023-02-14T03:02:13.165Z,6.40
2023-02-14T03:04:55.373Z,6.38
2023-02-14T03:07:37.881Z,6.30
2023-02-14T03:10:16.196Z,6.30
2023-02-14T03:13:35.165Z,6.40
2023-02-14T03:16:22.483Z,6.40
2023-02-14T03:19:31.006Z,6.40
2023-02-14T03:22:33.757Z,6.38
2023-02-14T03:25:44.981Z,6.30
2023-02-14T03:28:47.671Z,6.26
2023-02-14T03:31:43.995Z,6.22
2023-02-14T03:34:47.097Z,6.22
2023-02-14T03:37:46.495Z,6.26
2023-02-14T03:40:32.077Z,6.30
2023-02-14T03:43:22.577Z,6.30
2023-02-14T03:46:26.706Z,6.36
2023-02-14T03:48:57.702Z,6.40
2023-02-14T03:51:28.534Z,6.36
2023-02-14T03:53:58.269Z,6.30
2023-02-14T03:56:36.556Z,6.30
2023-02-14T03:59:16.649Z,6.30
2023-02-14T04:02:06.431Z,6.20
2023-02-14T04:04:41.658Z,6.20
2023-02-14T04:07:19.429Z,6.20
2023-02-14T04:09:49.012Z,6.20
2023-02-14T04:12:32.321Z,6.20
2023-02-14T04:15:06.075Z,6.20
2023-02-14T04:17:53.130Z,6.22
2023-02-14T04:20:22.227Z,6.30
2023-02-14T04:22:52.001Z,6.20
2023-02-14T04:25:22.224Z,6.12
2023-02-14T04:27:50.846Z,6.10
2023-02-14T04:30:21.155Z,6.10
2023-02-14T04:32:50.522Z,6.10
2023-02-14T04:35:19.063Z,6.10
2023-02-14T04:37:47.641Z,6.20
2023-02-14T04:40:17.862Z,6.20
2023-02-14T04:42:47.374Z,6.20
2023-02-14T04:45:16.377Z,6.18
2023-02-14T04:47:44.952Z,6.10
2023-02-14T04:50:14.780Z,6.10
2023-02-14T04:52:43.355Z,6.10
2023-02-14T04:55:12.038Z,6.10
2023-02-14T04:57:40.827Z,6.10
2023-02-14T05:00:10.800Z,6.10
2023-02-14T05:02:39.424Z,6.10
2023-02-14T05:05:08.735Z,6.10
2023-02-14T05:07:37.413Z,6.10
2023-02-14T05:10:07.127Z,6.10
2023-02-14T05:12:35.603Z,6.10
2023-02-14T05:15:04.603Z,6.00
2023-02-14T05:17:33.284Z,6.00
2023-02-14T05:20:01.981Z,6.00
2023-02-14T05:22:30.564Z,6.10
2023-02-14T05:24:59.255Z,6.12
2023-02-14T05:27:27.927Z,6.20
2023-02-14T05:29:56.690Z,6.12
2023-02-14T05:32:25.304Z,6.10
2023-02-14T05:34:53.887Z,6.10
2023-02-14T05:37:22.572Z,6.10
2023-02-14T05:39:51.158Z,6.10
2023-02-14T05:42:19.845Z,6.10
2023-02-14T05:44:49.145Z,6.10
2023-02-14T05:47:17.734Z,6.10
2023-02-14T05:49:46.329Z,6.12
2023-02-14T05:52:15.104Z,6.20
2023-02-14T05:54:43.801Z,6.20
2023-02-14T05:57:12.582Z,6.20
2023-02-14T05:59:41.185Z,6.20
2023-02-14T06:02:10.350Z,6.20
2023-02-14T06:04:39.180Z,6.20
2023-02-14T06:07:08.468Z,6.20
2023-02-14T06:09:37.150Z,6.20
2023-02-14T06:12:06.881Z,6.10
2023-02-14T06:14:35.653Z,6.20
2023-02-14T06:17:04.231Z,6.20
2023-02-14T06:19:33.126Z,6.20
2023-02-14T06:22:01.706Z,6.28
2023-02-14T06:24:30.603Z,6.20
2023-02-14T06:27:00.431Z,6.10
2023-02-14T06:29:29.110Z,6.12
2023-02-14T06:31:57.712Z,6.18
2023-02-14T06:34:26.883Z,6.20
2023-02-14T06:36:55.468Z,6.14
2023-02-14T06:39:24.157Z,6.20
2023-02-14T06:41:52.850Z,6.30
2023-02-14T06:44:21.535Z,6.30
2023-02-14T06:46:50.227Z,6.30
2023-02-14T06:49:19.105Z,6.40
2023-02-14T06:51:47.930Z,6.30
2023-02-14T06:54:16.996Z,6.30
2023-02-14T06:56:45.579Z,6.20
2023-02-14T06:59:14.163Z,6.20
2023-02-14T07:01:42.924Z,6.20
2023-02-14T07:04:11.748Z,6.20
2023-02-14T07:06:40.431Z,6.20
2023-02-14T07:09:09.015Z,6.30
2023-02-14T07:11:37.592Z,6.30
2023-02-14T07:14:06.281Z,6.34
2023-02-14T07:16:35.183Z,6.40
2023-02-14T07:19:03.776Z,6.40
2023-02-14T07:21:32.552Z,6.40
2023-02-14T07:24:01.352Z,6.40
2023-02-14T07:26:30.126Z,6.40
2023-02-14T07:28:58.818Z,6.40
2023-02-14T07:31:27.593Z,6.40
2023-02-14T07:34:01.125Z,6.30
2023-02-14T07:36:29.800Z,6.30
2023-02-14T07:38:58.580Z,6.40
2023-02-14T07:41:27.268Z,6.40
2023-02-14T07:43:56.112Z,6.40
2023-02-14T07:46:24.881Z,6.46
2023-02-14T07:48:53.750Z,6.50
2023-02-14T07:51:22.431Z,6.50
2023-02-14T07:53:51.125Z,6.50
2023-02-14T07:56:19.896Z,6.60
2023-02-14T07:58:50.014Z,6.60
2023-02-14T08:01:19.450Z,6.60
2023-02-14T08:03:51.796Z,6.70
2023-02-14T08:06:20.847Z,6.70
2023-02-14T08:08:49.586Z,6.70
2023-02-14T08:11:37.310Z,6.70
2023-02-14T08:14:06.305Z,6.70
2023-02-14T08:16:35.071Z,6.72
2023-02-14T08:19:04.410Z,6.80
2023-02-14T08:21:33.075Z,6.80
2023-02-14T08:24:01.660Z,6.88
2023-02-14T08:26:30.139Z,6.90
2023-02-14T08:28:58.831Z,6.92
2023-02-14T08:31:36.230Z,7.00
2023-02-14T08:34:06.515Z,7.04
2023-02-14T08:36:35.542Z,7.10
2023-02-14T08:39:06.184Z,7.12
2023-02-14T08:41:35.590Z,7.20
2023-02-14T08:44:04.294Z,7.20
2023-02-14T08:46:33.145Z,7.20
2023-02-14T08:49:01.839Z,7.24
2023-02-14T08:51:30.555Z,7.30
2023-02-14T08:53:59.225Z,7.30
2023-02-14T08:56:27.839Z,7.30
2023-02-14T08:58:56.637Z,7.30
2023-02-14T09:01:25.556Z,7.34
2023-02-14T09:03:55.416Z,7.40
2023-02-14T09:06:24.910Z,7.50
2023-02-14T09:08:55.580Z,7.52
2023-02-14T09:11:26.872Z,7.60
2023-02-14T09:13:55.469Z,7.60
2023-02-14T09:16:26.245Z,7.70
2023-02-14T09:18:55.218Z,7.70
2023-02-14T09:21:27.111Z,7.70
2023-02-14T09:23:55.852Z,7.72
2023-02-14T09:26:24.428Z,7.80
2023-02-14T09:28:53.016Z,7.80
2023-02-14T09:31:24.835Z,7.88
2023-02-14T09:34:12.098Z,7.90
2023-02-14T09:36:59.727Z,7.90
2023-02-14T09:39:28.312Z,8.00
2023-02-14T09:42:15.845Z,8.00
2023-02-14T09:44:58.972Z,8.10
2023-02-14T09:47:49.360Z,8.10
2023-02-14T09:50:40.582Z,8.18
2023-02-14T09:53:16.310Z,8.20
2023-02-14T09:56:02.221Z,8.30
2023-02-14T09:58:44.012Z,8.30
2023-02-14T10:01:17.983Z,8.30
2023-02-14T10:04:11.298Z,8.38
2023-02-14T10:07:16.953Z,8.40
2023-02-14T10:10:07.136Z,8.40
2023-02-14T10:12:46.678Z,8.40
2023-02-14T10:15:22.161Z,8.50
2023-02-14T10:17:57.873Z,8.50
2023-02-14T10:21:01.838Z,8.50
2023-02-14T10:24:05.390Z,8.60
2023-02-14T10:26:40.231Z,8.60
2023-02-14T10:29:19.272Z,8.60
2023-02-14T10:32:04.293Z,8.70
2023-02-14T10:34:46.529Z,8.70
2023-02-14T10:37:36.725Z,8.70
2023-02-14T10:40:26.963Z,8.70
2023-02-14T10:43:38.400Z,8.74
2023-02-14T10:46:38.847Z,8.60
2023-02-14T10:49:35.269Z,8.70
2023-02-14T10:52:15.944Z,8.60
2023-02-14T10:55:31.562Z,8.56
2023-02-14T10:58:06.645Z,8.50
2023-02-14T11:00:40.262Z,8.48
2023-02-14T11:03:11.123Z,8.40
2023-02-14T11:05:49.124Z,8.40
2023-02-14T11:08:43.807Z,8.40
2023-02-14T11:11:26.729Z,8.40
2023-02-14T11:13:55.522Z,8.30
2023-02-14T11:16:37.149Z,8.30
2023-02-14T11:19:19.550Z,8.36
2023-02-14T11:21:51.008Z,8.46
2023-02-14T11:24:41.816Z,8.50
2023-02-14T11:27:10.251Z,8.50
2023-02-14T11:29:41.738Z,8.60
2023-02-14T11:32:23.907Z,8.70
2023-02-14T11:35:14.507Z,8.74
2023-02-14T11:37:50.034Z,8.90
2023-02-14T11:40:38.106Z,8.80
2023-02-14T11:43:16.262Z,8.90
2023-02-14T11:45:50.276Z,8.92
2023-02-14T11:48:38.426Z,8.90
2023-02-14T11:51:14.952Z,8.90
2023-02-14T11:54:00.931Z,9.00
2023-02-14T11:56:54.101Z,9.02
2023-02-14T11:59:48.985Z,9.10
2023-02-14T12:02:40.106Z,9.00
2023-02-14T12:05:44.731Z,8.96
2023-02-14T12:08:13.747Z,8.90
2023-02-14T12:10:42.620Z,8.92
2023-02-14T12:13:11.123Z,8.98
2023-02-14T12:15:42.740Z,8.90
2023-02-14T12:18:49.438Z,9.00
2023-02-14T12:21:58.578Z,9.10
2023-02-14T12:24:41.800Z,9.20
2023-02-14T12:27:30.450Z,9.30
2023-02-14T12:30:16.999Z,9.30
2023-02-14T12:32:50.584Z,9.30
2023-02-14T12:35:29.375Z,9.32
2023-02-14T12:38:30.728Z,9.40
2023-02-14T12:40:59.662Z,9.40
2023-02-14T12:43:31.175Z,9.44
2023-02-14T12:46:15.155Z,9.50
2023-02-14T12:49:14.122Z,9.54
2023-02-14T12:52:10.051Z,9.50
2023-02-14T12:55:13.555Z,9.50
2023-02-14T12:58:13.370Z,9.44
2023-02-14T13:01:10.831Z,9.48
2023-02-14T13:03:45.459Z,9.40
2023-02-14T13:06:17.215Z,9.30
2023-02-14T13:09:13.756Z,9.30
2023-02-14T13:12:25.554Z,9.30
2023-02-14T13:15:36.224Z,9.30
2023-02-14T13:18:28.886Z,9.30
2023-02-14T13:21:01.994Z,9.30
2023-02-14T13:23:43.349Z,9.30
2023-02-14T13:26:39.203Z,9.30
2023-02-14T13:29:16.660Z,9.36
2023-02-14T13:31:45.820Z,9.40
2023-02-14T13:34:47.003Z,9.40
2023-02-14T13:37:24.140Z,9.40
2023-02-14T13:39:59.188Z,9.50
2023-02-14T13:42:52.810Z,9.50
2023-02-14T13:45:30.670Z,9.44
2023-02-14T13:48:29.494Z,9.50
2023-02-14T13:51:04.900Z,9.50
2023-02-14T13:53:40.939Z,9.60
2023-02-14T13:56:12.576Z,9.66
2023-02-14T13:58:53.955Z,9.60
2023-02-14T14:01:50.916Z,9.56
2023-02-14T14:04:28.686Z,9.50
2023-02-14T14:07:03.521Z,9.40
2023-02-14T14:09:44.390Z,9.40
2023-02-14T14:12:31.103Z,9.40
2023-02-14T14:15:05.980Z,9.38
2023-02-14T14:17:37.354Z,9.40
2023-02-14T14:20:26.242Z,9.40
2023-02-14T14:22:58.313Z,9.40
2023-02-14T14:25:42.433Z,9.40
2023-02-14T14:28:17.452Z,9.30
2023-02-14T14:30:46.203Z,9.30
2023-02-14T14:33:35.091Z,9.26
2023-02-14T14:36:11.356Z,9.22
2023-02-14T14:38:50.056Z,9.20
2023-02-14T14:41:18.816Z,9.20
2023-02-14T14:43:47.823Z,9.20
2023-02-14T14:46:17.667Z,9.16
2023-02-14T14:48:52.663Z,9.12
2023-02-14T14:51:32.322Z,9.02
2023-02-14T14:54:15.125Z,9.00
2023-02-14T14:57:03.780Z,8.92
2023-02-14T14:59:36.165Z,8.94
2023-02-14T15:02:26.680Z,8.98
2023-02-14T15:04:55.667Z,8.84
2023-02-14T15:07:34.699Z,8.80
2023-02-14T15:10:20.874Z,8.80
2023-02-14T15:13:11.072Z,8.70
2023-02-14T15:15:40.197Z,8.70
2023-02-14T15:18:13.480Z,8.70
2023-02-14T15:20:52.216Z,8.60
2023-02-14T15:23:25.483Z,8.60
2023-02-14T15:25:54.064Z,8.50
2023-02-14T15:28:34.464Z,8.44
2023-02-14T15:31:07.043Z,8.40
2023-02-14T15:33:37.228Z,8.40
2023-02-14T15:36:16.154Z,8.40
2023-02-14T15:38:44.969Z,8.40
2023-02-14T15:41:15.991Z,8.30
2023-02-14T15:43:53.761Z,8.30
2023-02-14T15:46:28.951Z,8.20
2023-02-14T15:49:01.532Z,8.20
2023-02-14T15:51:36.551Z,8.10
2023-02-14T15:54:32.155Z,8.10
2023-02-14T15:57:01.518Z,8.10
2023-02-14T15:59:33.944Z,8.10
2023-02-14T16:02:27.875Z,8.10
2023-02-14T16:05:18.811Z,8.02
2023-02-14T16:08:04.290Z,8.00
2023-02-14T16:10:40.406Z,7.94
2023-02-14T16:13:15.793Z,7.80
2023-02-14T16:16:10.411Z,7.80
2023-02-14T16:18:53.143Z,7.60
2023-02-14T16:21:33.521Z,7.50
2023-02-14T16:24:08.185Z,7.40
2023-02-14T16:26:43.747Z,7.30
2023-02-14T16:29:16.324Z,7.20
2023-02-14T16:32:15.157Z,7.10
2023-02-14T16:34:47.660Z,6.98
2023-02-14T16:37:35.055Z,6.90
2023-02-14T16:40:03.805Z,6.76
2023-02-14T16:42:33.005Z,6.70
2023-02-14T16:45:01.585Z,6.70
2023-02-14T16:47:30.374Z,6.60
2023-02-14T16:49:58.956Z,6.60
2023-02-14T16:52:28.950Z,6.50
2023-02-14T16:54:57.558Z,6.40
2023-02-14T16:57:38.044Z,6.30
2023-02-14T17:00:08.669Z,6.20
2023-02-14T17:02:37.881Z,6.10
2023-02-14T17:05:07.154Z,6.00
2023-02-14T17:07:37.668Z,5.90
2023-02-14T17:10:15.794Z,5.80
2023-02-14T17:12:47.664Z,5.76
2023-02-14T17:15:20.000Z,5.70
2023-02-14T17:17:50.215Z,5.70
2023-02-14T17:20:22.129Z,5.66
2023-02-14T17:22:51.220Z,5.60
2023-02-14T17:25:19.901Z,5.50
2023-02-14T17:27:49.668Z,5.40
2023-02-14T17:30:18.516Z,5.30
2023-02-14T17:32:47.099Z,5.24
2023-02-14T17:35:16.824Z,5.20
2023-02-14T17:37:45.586Z,5.08
2023-02-14T17:40:15.202Z,5.00
2023-02-14T17:42:43.776Z,4.90
2023-02-14T17:45:12.479Z,4.90
2023-02-14T17:47:43.542Z,4.90
2023-02-14T17:50:13.595Z,4.90
2023-02-14T17:52:43.052Z,4.90
2023-02-14T17:55:12.623Z,4.90
2023-02-14T17:57:42.066Z,4.80
2023-02-14T18:00:12.210Z,4.70
2023-02-14T18:02:43.639Z,4.60
2023-02-14T18:05:12.613Z,4.50
2023-02-14T18:07:41.325Z,4.40
2023-02-14T18:10:11.121Z,4.30
2023-02-14T18:12:39.696Z,4.30
2023-02-14T18:15:09.551Z,4.30
2023-02-14T18:17:38.109Z,4.30
2023-02-14T18:20:07.976Z,4.30
2023-02-14T18:22:37.105Z,4.30
2023-02-14T18:25:07.784Z,4.20
2023-02-14T18:27:36.325Z,4.20
2023-02-14T18:30:06.893Z,4.10
2023-02-14T18:32:35.434Z,4.06
2023-02-14T18:35:04.331Z,4.00
2023-02-14T18:37:33.013Z,4.00
2023-02-14T18:40:01.708Z,3.90
2023-02-14T18:42:30.496Z,3.90
2023-02-14T18:44:59.171Z,3.88
2023-02-14T18:47:27.861Z,3.80
2023-02-14T18:49:56.759Z,3.80
2023-02-14T18:52:25.558Z,3.72
2023-02-14T18:54:54.234Z,3.70
2023-02-14T18:57:22.916Z,3.60
2023-02-14T18:59:51.509Z,3.54
2023-02-14T19:02:20.318Z,3.48
2023-02-14T19:04:49.082Z,3.40
2023-02-14T19:07:17.871Z,3.40
2023-02-14T19:09:46.478Z,3.40
2023-02-14T19:12:15.346Z,3.38
2023-02-14T19:14:43.834Z,3.30
2023-02-14T19:17:13.437Z,3.30
2023-02-14T19:19:42.028Z,3.20
2023-02-14T19:22:11.546Z,3.10
2023-02-14T19:24:40.384Z,3.10
2023-02-14T19:27:09.112Z,3.10
2023-02-14T19:29:38.559Z,3.10
2023-02-14T19:32:07.228Z,3.18
2023-02-14T19:34:36.613Z,3.20
2023-02-14T19:37:05.292Z,3.20
2023-02-14T19:39:33.885Z,3.20
2023-02-14T19:42:04.372Z,3.10
2023-02-14T19:44:33.504Z,3.10
2023-02-14T19:47:09.792Z,3.08
2023-02-14T19:49:45.024Z,3.00
2023-02-14T19:52:25.741Z,3.00
2023-02-14T19:54:58.365Z,2.98
2023-02-14T19:57:27.436Z,3.00
2023-02-14T19:59:56.243Z,2.92
2023-02-14T20:02:25.363Z,2.90
2023-02-14T20:04:58.984Z,2.92
2023-02-14T20:07:27.653Z,2.94
2023-02-14T20:09:56.515Z,2.88
2023-02-14T20:12:25.007Z,2.72
2023-02-14T20:14:54.705Z,2.68
2023-02-14T20:17:23.193Z,2.60
2023-02-14T20:19:53.052Z,2.60
2023-02-14T20:22:23.278Z,2.50
2023-02-14T20:24:51.891Z,2.50
2023-02-14T20:27:20.903Z,2.60
2023-02-14T20:29:50.932Z,2.56
2023-02-14T20:32:19.517Z,2.60
2023-02-14T20:34:48.603Z,2.60
2023-02-14T20:37:17.186Z,2.60
2023-02-14T20:39:45.974Z,2.56
2023-02-14T20:42:14.868Z,2.50
2023-02-14T20:44:43.630Z,2.44
2023-02-14T20:47:12.444Z,2.40
2023-02-14T20:49:44.923Z,2.40
2023-02-14T20:52:13.510Z,2.30
2023-02-14T20:54:42.105Z,2.30
2023-02-14T20:57:10.679Z,2.24
2023-02-14T20:59:44.525Z,2.20
2023-02-14T21:02:13.080Z,2.20
2023-02-14T21:04:41.650Z,2.20
2023-02-14T21:07:10.656Z,2.20
2023-02-14T21:09:39.440Z,2.10
2023-02-14T21:12:08.377Z,2.00
2023-02-14T21:14:36.911Z,1.98
2023-02-14T21:17:05.699Z,1.98
2023-02-14T21:19:34.287Z,2.00
2023-02-14T21:22:03.198Z,2.00
2023-02-14T21:24:31.976Z,2.06
2023-02-14T21:27:01.985Z,2.10
2023-02-14T21:29:30.577Z,2.10
2023-02-14T21:32:00.513Z,2.10
2023-02-14T21:34:31.560Z,2.06
2023-02-14T21:37:00.119Z,2.00
2023-02-14T21:39:31.269Z,2.00
2023-02-14T21:42:01.278Z,1.90
2023-02-14T21:44:48.507Z,1.90
2023-02-14T21:47:17.097Z,1.88
2023-02-14T21:50:04.210Z,1.90
2023-02-14T21:52:33.305Z,1.90
2023-02-14T21:55:01.788Z,1.90
2023-02-14T21:57:31.545Z,1.90
2023-02-14T22:00:00.113Z,1.90
2023-02-14T22:02:28.780Z,1.90
2023-02-14T22:04:57.452Z,1.90
2023-02-14T22:07:29.416Z,1.80
2023-02-14T22:09:58.019Z,1.74
2023-02-14T22:12:26.786Z,1.70
2023-02-14T22:14:55.679Z,1.70
2023-02-14T22:17:24.167Z,1.60
2023-02-14T22:19:52.847Z,1.60
2023-02-14T22:22:21.780Z,1.60
2023-02-14T22:24:50.528Z,1.60
2023-02-14T22:27:19.315Z,1.60
2023-02-14T22:29:47.896Z,1.60
2023-02-14T22:32:16.544Z,1.60
2023-02-14T22:34:46.194Z,1.60
2023-02-14T22:37:14.775Z,1.50
2023-02-14T22:39:43.363Z,1.40
2023-02-14T22:42:11.950Z,1.40
2023-02-14T22:44:40.529Z,1.48
2023-02-14T22:47:09.217Z,1.50
2023-02-14T22:49:37.901Z,1.50
2023-02-14T22:52:06.480Z,1.50
2023-02-14T22:54:35.070Z,1.50
2023-02-14T22:57:03.865Z,1.50
2023-02-14T22:59:33.674Z,1.42
2023-02-14T23:02:02.352Z,1.40
2023-02-14T23:04:31.259Z,1.30
2023-02-14T23:06:59.734Z,1.28
2023-02-14T23:09:28.727Z,1.20
2023-02-14T23:11:57.311Z,1.26
2023-02-14T23:14:44.328Z,1.24
2023-02-14T23:17:35.236Z,1.22
2023-02-14T23:20:23.193Z,1.30
2023-02-14T23:22:51.864Z,1.30
2023-02-14T23:25:20.451Z,1.24
2023-02-14T23:27:49.032Z,1.20
2023-02-14T23:30:19.727Z,1.20
2023-02-14T23:32:48.502Z,1.18
2023-02-14T23:35:17.143Z,1.10
2023-02-14T23:37:45.726Z,1.10
2023-02-14T23:40:14.418Z,1.20
2023-02-14T23:42:43.000Z,1.20
2023-02-14T23:45:30.663Z,1.30
2023-02-14T23:48:05.498Z,1.30
2023-02-14T23:50:34.256Z,1.40
2023-02-14T23:53:02.731Z,1.32
2023-02-14T23:55:31.324Z,1.30
2023-02-14T23:58:00.658Z,1.30
